createdAt,value
2022-08-03T00:00:04.127Z,101386.61
2022-08-03T00:00:34.542Z,101386.08
2022-08-03T00:01:04.961Z,101386.02
2022-08-03T00:01:35.382Z,101383.70
2022-08-03T00:02:05.809Z,101383.22
2022-08-03T00:02:38.587Z,101383.88
2022-08-03T00:03:09.102Z,101382.18
2022-08-03T00:03:39.500Z,101382.27
2022-08-03T00:04:09.919Z,101382.52
2022-08-03T00:04:40.349Z,101382.20
2022-08-03T00:05:10.771Z,101384.11
2022-08-03T00:05:41.190Z,101381.29
2022-08-03T00:06:16.511Z,101385.88
2022-08-03T00:06:46.930Z,101383.20
2022-08-03T00:07:17.356Z,101384.06
2022-08-03T00:07:48.477Z,101384.75
2022-08-03T00:08:19.866Z,101380.15
2022-08-03T00:08:50.286Z,101383.66
2022-08-03T00:09:20.707Z,101381.50
2022-08-03T00:09:51.125Z,101381.50
2022-08-03T00:10:21.547Z,101382.06
2022-08-03T00:10:51.966Z,101378.05
2022-08-03T00:11:22.390Z,101379.15
2022-08-03T00:11:52.809Z,101372.29
2022-08-03T00:12:23.236Z,101375.64
2022-08-03T00:12:53.656Z,101375.77
2022-08-03T00:13:24.075Z,101373.40
2022-08-03T00:13:54.497Z,101375.45
2022-08-03T00:14:24.916Z,101376.97
2022-08-03T00:14:55.339Z,101377.91
2022-08-03T00:15:25.799Z,101380.69
2022-08-03T00:15:56.177Z,101383.73
2022-08-03T00:16:26.608Z,101381.92
2022-08-03T00:16:57.018Z,101382.14
2022-08-03T00:17:27.445Z,101380.88
2022-08-03T00:17:57.868Z,101382.06
2022-08-03T00:18:28.287Z,101379.66
2022-08-03T00:18:58.705Z,101377.98
2022-08-03T00:19:31.236Z,101373.59
2022-08-03T00:20:01.658Z,101375.11
2022-08-03T00:20:32.076Z,101373.95
2022-08-03T00:21:02.496Z,101374.45
2022-08-03T00:21:32.916Z,101374.58
2022-08-03T00:22:03.342Z,101377.19
2022-08-03T00:22:33.763Z,101377.78
2022-08-03T00:23:04.184Z,101375.22
2022-08-03T00:23:52.446Z,101375.90
2022-08-03T00:24:09.924Z,101372.27
2022-08-03T00:24:40.342Z,101373.59
2022-08-03T00:25:10.759Z,101377.70
2022-08-03T00:25:41.183Z,101370.78
2022-08-03T00:26:11.604Z,101371.91
2022-08-03T00:26:42.026Z,101371.16
2022-08-03T00:27:12.453Z,101369.01
2022-08-03T00:27:48.354Z,101370.28
2022-08-03T00:28:20.707Z,101370.41
2022-08-03T00:28:51.135Z,101371.03
2022-08-03T00:29:21.548Z,101367.53
2022-08-03T00:29:59.707Z,101367.41
2022-08-03T00:30:30.783Z,101364.88
2022-08-03T00:31:01.374Z,101363.73
2022-08-03T00:31:51.462Z,101363.73
2022-08-03T00:32:07.133Z,101361.27
2022-08-03T00:32:45.013Z,101358.27
2022-08-03T00:33:15.756Z,101359.03
2022-08-03T00:33:59.380Z,101360.86
2022-08-03T00:34:22.456Z,101360.30
2022-08-03T00:34:58.882Z,101361.06
2022-08-03T00:35:50.072Z,101359.58
2022-08-03T00:36:04.867Z,101359.69
2022-08-03T00:36:35.286Z,101359.86
2022-08-03T00:37:05.713Z,101355.15
2022-08-03T00:37:40.660Z,101357.39
2022-08-03T00:38:11.455Z,101362.24
2022-08-03T00:38:41.872Z,101358.94
2022-08-03T00:39:12.294Z,101359.20
2022-08-03T00:39:42.716Z,101360.19
2022-08-03T00:40:13.137Z,101354.20
2022-08-03T00:40:43.557Z,101351.91
2022-08-03T00:41:15.784Z,101351.76
2022-08-03T00:41:46.159Z,101352.03
2022-08-03T00:42:16.921Z,101352.70
2022-08-03T00:42:47.426Z,101352.20
2022-08-03T00:43:17.847Z,101351.89
2022-08-03T00:43:48.272Z,101349.70
2022-08-03T00:44:18.688Z,101350.37
2022-08-03T00:44:49.106Z,101352.20
2022-08-03T00:45:19.527Z,101350.28
2022-08-03T00:45:50.153Z,101347.92
2022-08-03T00:46:22.096Z,101350.12
2022-08-03T00:46:52.492Z,101349.78
2022-08-03T00:47:22.925Z,101351.26
2022-08-03T00:47:53.344Z,101351.74
2022-08-03T00:48:32.920Z,101353.35
2022-08-03T00:48:59.123Z,101354.37
2022-08-03T00:49:29.581Z,101355.19
2022-08-03T00:49:59.953Z,101357.22
2022-08-03T00:50:30.375Z,101358.06
2022-08-03T00:51:00.798Z,101356.73
2022-08-03T00:51:31.245Z,101353.12
2022-08-03T00:52:01.637Z,101354.16
2022-08-03T00:52:36.967Z,101353.05
2022-08-03T00:53:07.387Z,101351.06
2022-08-03T00:53:37.808Z,101351.75
2022-08-03T00:54:08.229Z,101356.44
2022-08-03T00:54:38.664Z,101355.78
2022-08-03T00:55:09.081Z,101351.91
2022-08-03T00:55:39.502Z,101353.05
2022-08-03T00:56:09.921Z,101351.53
2022-08-03T00:56:40.343Z,101352.69
2022-08-03T00:57:15.701Z,101349.84
2022-08-03T00:57:46.122Z,101353.41
2022-08-03T00:58:16.541Z,101352.09
2022-08-03T00:58:46.960Z,101351.81
2022-08-03T00:59:17.387Z,101349.95
2022-08-03T00:59:47.799Z,101348.17
2022-08-03T01:00:18.218Z,101349.84
2022-08-03T01:00:48.741Z,101349.61
2022-08-03T01:01:19.219Z,101347.61
2022-08-03T01:01:49.739Z,101349.45
2022-08-03T01:02:20.117Z,101345.95
2022-08-03T01:02:50.536Z,101347.44
2022-08-03T01:03:20.957Z,101344.59
2022-08-03T01:03:51.376Z,101345.22
2022-08-03T01:04:21.796Z,101347.08
2022-08-03T01:04:52.215Z,101345.97
2022-08-03T01:05:23.340Z,101347.81
2022-08-03T01:05:53.754Z,101346.06
2022-08-03T01:06:24.174Z,101342.56
2022-08-03T01:06:54.594Z,101341.55
2022-08-03T01:07:25.025Z,101342.56
2022-08-03T01:07:55.446Z,101336.52
2022-08-03T01:08:25.865Z,101340.89
2022-08-03T01:08:56.283Z,101338.57
2022-08-03T01:09:26.706Z,101337.56
2022-08-03T01:09:57.126Z,101340.41
2022-08-03T01:10:27.546Z,101337.70
2022-08-03T01:11:01.317Z,101338.45
2022-08-03T01:11:31.740Z,101338.62
2022-08-03T01:12:02.158Z,101336.38
2022-08-03T01:12:32.587Z,101337.70
2022-08-03T01:13:03.007Z,101338.55
2022-08-03T01:14:02.398Z,101338.81
2022-08-03T01:14:19.249Z,101334.41
2022-08-03T01:14:44.068Z,101334.61
2022-08-03T01:15:14.517Z,101337.09
2022-08-03T01:15:44.908Z,101333.86
2022-08-03T01:16:15.326Z,101333.38
2022-08-03T01:16:45.744Z,101332.53
2022-08-03T01:17:16.169Z,101329.82
2022-08-03T01:17:47.256Z,101332.36
2022-08-03T01:18:17.660Z,101330.72
2022-08-03T01:18:48.083Z,101331.25
2022-08-03T01:19:18.509Z,101332.07
2022-08-03T01:19:48.930Z,101331.56
2022-08-03T01:20:19.349Z,101332.92
2022-08-03T01:20:49.775Z,101331.59
2022-08-03T01:21:20.193Z,101332.29
2022-08-03T01:21:52.113Z,101331.42
2022-08-03T01:22:22.537Z,101335.12
2022-08-03T01:22:52.962Z,101333.96
2022-08-03T01:23:23.380Z,101330.69
2022-08-03T01:23:58.701Z,101333.56
2022-08-03T01:24:29.120Z,101330.55
2022-08-03T01:24:59.547Z,101328.16
2022-08-03T01:25:29.966Z,101332.53
2022-08-03T01:26:00.386Z,101330.98
2022-08-03T01:26:30.806Z,101333.20
2022-08-03T01:27:03.423Z,101329.53
2022-08-03T01:27:33.867Z,101333.30
2022-08-03T01:28:04.285Z,101330.09
2022-08-03T01:28:34.708Z,101330.23
2022-08-03T01:29:05.125Z,101333.00
2022-08-03T01:29:35.545Z,101329.63
2022-08-03T01:30:05.987Z,101330.82
2022-08-03T01:30:36.384Z,101330.11
2022-08-03T01:31:06.804Z,101334.00
2022-08-03T01:31:37.226Z,101332.20
2022-08-03T01:32:53.615Z,101330.70
2022-08-03T01:33:03.099Z,101327.32
2022-08-03T01:33:23.416Z,101328.36
2022-08-03T01:33:53.839Z,101325.98
2022-08-03T01:34:24.259Z,101328.02
2022-08-03T01:34:54.681Z,101327.84
2022-08-03T01:35:25.105Z,101329.71
2022-08-03T01:35:55.522Z,101328.23
2022-08-03T01:36:25.940Z,101325.20
2022-08-03T01:36:56.360Z,101327.17
2022-08-03T01:37:26.787Z,101328.09
2022-08-03T01:37:57.206Z,101327.34
2022-08-03T01:38:27.632Z,101330.69
2022-08-03T01:38:58.047Z,101325.98
2022-08-03T01:39:28.478Z,101329.20
2022-08-03T01:39:58.894Z,101326.54
2022-08-03T01:40:29.313Z,101327.02
2022-08-03T01:40:59.734Z,101329.53
2022-08-03T01:41:30.160Z,101323.45
2022-08-03T01:42:00.576Z,101326.16
2022-08-03T01:42:31.003Z,101326.55
2022-08-03T01:43:01.426Z,101324.03
2022-08-03T01:44:26.355Z,101327.08
2022-08-03T01:44:29.888Z,101325.04
2022-08-03T01:44:42.486Z,101324.30
2022-08-03T01:45:12.907Z,101326.70
2022-08-03T01:45:43.329Z,101322.55
2022-08-03T01:46:13.747Z,101324.52
2022-08-03T01:46:47.716Z,101322.81
2022-08-03T01:47:19.270Z,101328.84
2022-08-03T01:47:49.686Z,101324.84
2022-08-03T01:48:20.104Z,101324.04
2022-08-03T01:48:50.529Z,101327.25
2022-08-03T01:49:21.015Z,101324.09
2022-08-03T01:49:51.411Z,101321.30
2022-08-03T01:50:21.833Z,101322.84
2022-08-03T01:50:52.254Z,101324.53
2022-08-03T01:51:22.671Z,101321.71
2022-08-03T01:51:57.924Z,101325.94
2022-08-03T01:52:28.431Z,101324.27
2022-08-03T01:52:58.851Z,101319.91
2022-08-03T01:53:29.271Z,101323.62
2022-08-03T01:53:59.688Z,101326.67
2022-08-03T01:54:30.109Z,101320.63
2022-08-03T01:55:00.528Z,101321.33
2022-08-03T01:55:30.952Z,101319.47
2022-08-03T01:56:01.374Z,101321.25
2022-08-03T01:56:31.790Z,101319.56
2022-08-03T01:57:02.222Z,101320.64
2022-08-03T01:57:32.654Z,101324.84
2022-08-03T01:58:07.978Z,101322.36
2022-08-03T01:58:38.393Z,101325.45
2022-08-03T01:59:08.812Z,101321.11
2022-08-03T01:59:39.233Z,101321.69
2022-08-03T02:00:09.651Z,101324.52
2022-08-03T02:00:40.124Z,101321.48
2022-08-03T02:01:10.555Z,101320.23
2022-08-03T02:02:32.387Z,101321.77
2022-08-03T02:02:32.585Z,101321.73
2022-08-03T02:02:51.762Z,101320.27
2022-08-03T02:03:22.175Z,101322.09
2022-08-03T02:03:59.805Z,101322.60
2022-08-03T02:04:27.917Z,101321.25
2022-08-03T02:04:58.336Z,101319.11
2022-08-03T02:05:28.757Z,101321.88
2022-08-03T02:07:00.007Z,101318.86
2022-08-03T02:07:00.862Z,101316.12
2022-08-03T02:07:09.821Z,101317.67
2022-08-03T02:07:40.248Z,101317.48
2022-08-03T02:08:10.670Z,101316.08
2022-08-03T02:08:41.089Z,101315.55
2022-08-03T02:09:11.508Z,101314.50
2022-08-03T02:09:41.927Z,101318.52
2022-08-03T02:10:12.346Z,101319.06
2022-08-03T02:10:42.769Z,101317.26
2022-08-03T02:11:13.189Z,101319.99
2022-08-03T02:11:43.610Z,101321.70
2022-08-03T02:12:14.326Z,101319.78
2022-08-03T02:12:46.044Z,101317.08
2022-08-03T02:13:16.488Z,101316.77
2022-08-03T02:13:46.905Z,101315.44
2022-08-03T02:14:17.330Z,101318.12
2022-08-03T02:14:47.748Z,101316.79
2022-08-03T02:15:18.169Z,101321.22
2022-08-03T02:15:48.588Z,101313.94
2022-08-03T02:16:19.010Z,101317.44
2022-08-03T02:16:49.433Z,101319.25
2022-08-03T02:17:38.750Z,101317.88
2022-08-03T02:17:55.212Z,101317.80
2022-08-03T02:18:25.627Z,101314.61
2022-08-03T02:18:56.055Z,101314.98
2022-08-03T02:19:26.465Z,101317.59
2022-08-03T02:19:56.887Z,101316.91
2022-08-03T02:20:27.310Z,101314.56
2022-08-03T02:20:57.726Z,101317.59
2022-08-03T02:21:56.486Z,101314.20
2022-08-03T02:22:03.467Z,101316.01
2022-08-03T02:22:34.473Z,101319.70
2022-08-03T02:23:04.893Z,101313.61
2022-08-03T02:23:35.312Z,101317.26
2022-08-03T02:24:06.376Z,101318.44
2022-08-03T02:24:36.783Z,101320.47
2022-08-03T02:25:07.201Z,101315.73
2022-08-03T02:25:37.623Z,101320.36
2022-08-03T02:26:08.043Z,101317.62
2022-08-03T02:26:38.464Z,101320.21
2022-08-03T02:27:08.884Z,101317.78
2022-08-03T02:27:43.370Z,101321.64
2022-08-03T02:28:14.062Z,101318.51
2022-08-03T02:28:44.480Z,101319.98
2022-08-03T02:29:14.902Z,101317.75
2022-08-03T02:29:45.321Z,101321.00
2022-08-03T02:30:15.739Z,101321.31
2022-08-03T02:30:46.159Z,101319.53
2022-08-03T02:31:21.482Z,101319.23
2022-08-03T02:31:51.902Z,101320.84
2022-08-03T02:32:22.322Z,101322.56
2022-08-03T02:32:52.759Z,101316.66
2022-08-03T02:33:23.178Z,101321.09
2022-08-03T02:33:53.597Z,101317.59
2022-08-03T02:34:24.021Z,101318.79
2022-08-03T02:34:54.437Z,101322.23
2022-08-03T02:35:24.857Z,101320.88
2022-08-03T02:35:55.279Z,101320.20
2022-08-03T02:36:25.699Z,101319.36
2022-08-03T02:36:56.124Z,101324.43
2022-08-03T02:37:26.543Z,101322.00
2022-08-03T02:37:56.973Z,101322.15
2022-08-03T02:38:27.395Z,101323.28
2022-08-03T02:38:57.812Z,101320.46
2022-08-03T02:39:30.061Z,101323.16
2022-08-03T02:40:00.482Z,101320.80
2022-08-03T02:40:30.903Z,101323.14
2022-08-03T02:41:01.323Z,101319.59
2022-08-03T02:41:31.745Z,101322.61
2022-08-03T02:42:04.776Z,101317.78
2022-08-03T02:42:35.194Z,101317.94
2022-08-03T02:43:05.626Z,101314.45
2022-08-03T02:43:39.206Z,101319.16
2022-08-03T02:44:11.376Z,101317.42
2022-08-03T02:44:41.796Z,101320.23
2022-08-03T02:45:12.223Z,101321.98
2022-08-03T02:45:45.525Z,101318.17
2022-08-03T02:46:16.126Z,101319.35
2022-08-03T02:46:46.556Z,101317.38
2022-08-03T02:47:16.993Z,101319.18
2022-08-03T02:47:53.494Z,101320.37
2022-08-03T02:48:22.740Z,101325.08
2022-08-03T02:48:53.234Z,101318.31
2022-08-03T02:49:41.186Z,101322.70
2022-08-03T02:49:58.943Z,101320.73
2022-08-03T02:50:29.341Z,101323.41
2022-08-03T02:50:59.794Z,101322.81
2022-08-03T02:51:30.183Z,101321.20
2022-08-03T02:52:00.602Z,101318.98
2022-08-03T02:52:31.024Z,101321.48
2022-08-03T02:53:01.452Z,101324.12
2022-08-03T02:53:31.869Z,101322.33
2022-08-03T02:54:02.287Z,101324.04
2022-08-03T02:54:32.808Z,101325.88
2022-08-03T02:55:03.281Z,101328.23
2022-08-03T02:55:33.701Z,101325.90
2022-08-03T02:56:04.120Z,101323.75
2022-08-03T02:56:34.539Z,101326.43
2022-08-03T02:57:04.962Z,101325.73
2022-08-03T02:57:35.385Z,101324.55
2022-08-03T02:58:05.813Z,101320.31
2022-08-03T02:58:36.231Z,101324.23
2022-08-03T02:59:06.651Z,101325.83
2022-08-03T02:59:37.311Z,101326.34
2022-08-03T03:00:07.739Z,101324.81
2022-08-03T03:00:38.198Z,101320.83
2022-08-03T03:01:08.704Z,101322.30
2022-08-03T03:01:39.083Z,101325.82
2022-08-03T03:02:09.500Z,101326.50
2022-08-03T03:02:39.929Z,101325.51
2022-08-03T03:03:14.861Z,101328.58
2022-08-03T03:03:45.281Z,101328.61
2022-08-03T03:04:15.702Z,101327.95
2022-08-03T03:05:53.294Z,101327.33
2022-08-03T03:05:56.337Z,101327.02
2022-08-03T03:05:57.950Z,101326.62
2022-08-03T03:06:30.208Z,101324.47
2022-08-03T03:07:01.764Z,101328.42
2022-08-03T03:07:52.149Z,101328.11
2022-08-03T03:08:18.496Z,101325.96
2022-08-03T03:08:44.650Z,101329.62
2022-08-03T03:09:15.083Z,101327.64
2022-08-03T03:09:45.498Z,101326.95
2022-08-03T03:10:15.917Z,101329.12
2022-08-03T03:10:46.339Z,101326.95
2022-08-03T03:11:16.766Z,101329.58
2022-08-03T03:11:47.186Z,101331.25
2022-08-03T03:12:17.890Z,101329.98
2022-08-03T03:12:48.330Z,101331.16
2022-08-03T03:13:18.759Z,101331.65
2022-08-03T03:13:49.183Z,101328.58
2022-08-03T03:14:19.604Z,101328.23
2022-08-03T03:14:54.927Z,101328.36
2022-08-03T03:15:25.349Z,101327.52
2022-08-03T03:15:55.767Z,101326.21
2022-08-03T03:16:26.187Z,101329.38
2022-08-03T03:16:57.675Z,101332.75
2022-08-03T03:17:28.390Z,101329.66
2022-08-03T03:17:58.814Z,101328.84
2022-08-03T03:18:29.235Z,101328.64
2022-08-03T03:18:59.655Z,101328.14
2022-08-03T03:19:30.074Z,101329.38
2022-08-03T03:20:00.505Z,101330.84
2022-08-03T03:20:30.921Z,101326.50
2022-08-03T03:21:01.345Z,101327.23
2022-08-03T03:21:31.760Z,101325.73
2022-08-03T03:22:02.182Z,101325.22
2022-08-03T03:22:32.604Z,101327.11
2022-08-03T03:23:03.030Z,101325.08
2022-08-03T03:23:34.125Z,101325.05
2022-08-03T03:24:04.557Z,101324.95
2022-08-03T03:24:34.983Z,101323.91
2022-08-03T03:25:05.406Z,101323.94
2022-08-03T03:25:35.823Z,101320.94
2022-08-03T03:26:06.243Z,101319.81
2022-08-03T03:26:40.704Z,101323.22
2022-08-03T03:27:11.986Z,101321.20
2022-08-03T03:27:50.813Z,101322.11
2022-08-03T03:28:21.296Z,101321.14
2022-08-03T03:28:51.717Z,101323.17
2022-08-03T03:29:22.136Z,101320.83
2022-08-03T03:29:52.557Z,101319.30
2022-08-03T03:30:22.977Z,101319.70
2022-08-03T03:30:53.641Z,101319.98
2022-08-03T03:31:24.057Z,101321.14
2022-08-03T03:31:54.476Z,101322.11
2022-08-03T03:32:24.895Z,101322.64
2022-08-03T03:32:55.314Z,101320.81
2022-08-03T03:33:28.273Z,101321.99
2022-08-03T03:33:58.902Z,101323.02
2022-08-03T03:34:29.320Z,101323.08
2022-08-03T03:35:00.901Z,101324.07
2022-08-03T03:35:31.325Z,101322.07
2022-08-03T03:36:06.646Z,101327.35
2022-08-03T03:36:37.069Z,101324.09
2022-08-03T03:37:07.485Z,101326.28
2022-08-03T03:37:37.904Z,101326.34
2022-08-03T03:38:08.338Z,101323.36
2022-08-03T03:38:38.761Z,101322.74
2022-08-03T03:39:15.566Z,101328.52
2022-08-03T03:39:44.505Z,101324.38
2022-08-03T03:40:14.925Z,101320.67
2022-08-03T03:40:45.349Z,101322.31
2022-08-03T03:41:15.766Z,101322.59
2022-08-03T03:41:46.186Z,101320.57
2022-08-03T03:42:17.049Z,101321.67
2022-08-03T03:42:47.666Z,101321.51
2022-08-03T03:43:18.096Z,101321.20
2022-08-03T03:43:48.516Z,101324.60
2022-08-03T03:44:19.679Z,101324.94
2022-08-03T03:44:50.164Z,101325.96
2022-08-03T03:45:20.523Z,101324.05
2022-08-03T03:45:50.941Z,101323.17
2022-08-03T03:46:21.360Z,101321.99
2022-08-03T03:46:51.782Z,101321.68
2022-08-03T03:47:32.147Z,101322.41
2022-08-03T03:47:57.524Z,101321.56
2022-08-03T03:48:27.962Z,101326.73
2022-08-03T03:48:58.438Z,101325.73
2022-08-03T03:49:28.868Z,101322.75
2022-08-03T03:49:59.237Z,101323.53
2022-08-03T03:50:29.657Z,101324.22
2022-08-03T03:51:00.076Z,101325.06
2022-08-03T03:51:30.509Z,101324.84
2022-08-03T03:52:00.921Z,101322.47
2022-08-03T03:52:31.339Z,101324.70
2022-08-03T03:53:01.764Z,101323.88
2022-08-03T03:53:32.183Z,101323.42
2022-08-03T03:54:02.608Z,101321.22
2022-08-03T03:54:33.024Z,101321.88
2022-08-03T03:55:03.449Z,101318.47
2022-08-03T03:55:33.861Z,101318.08
2022-08-03T03:56:04.286Z,101319.27
2022-08-03T03:56:34.711Z,101318.50
2022-08-03T03:57:05.125Z,101322.02
2022-08-03T03:57:35.546Z,101317.44
2022-08-03T03:58:05.973Z,101318.36
2022-08-03T03:58:36.392Z,101318.66
2022-08-03T03:59:06.811Z,101314.95
2022-08-03T03:59:37.228Z,101315.62
2022-08-03T04:00:07.648Z,101318.05
2022-08-03T04:00:38.125Z,101317.99
2022-08-03T04:01:08.639Z,101312.94
2022-08-03T04:01:39.024Z,101313.20
2022-08-03T04:02:09.505Z,101313.17
2022-08-03T04:02:39.897Z,101316.17
2022-08-03T04:03:10.324Z,101318.54
2022-08-03T04:03:40.745Z,101317.52
2022-08-03T04:04:11.174Z,101317.74
2022-08-03T04:04:41.587Z,101318.69
2022-08-03T04:05:12.008Z,101316.34
2022-08-03T04:05:45.888Z,101319.33
2022-08-03T04:06:16.390Z,101316.19
2022-08-03T04:06:46.814Z,101318.27
2022-08-03T04:07:17.229Z,101318.12
2022-08-03T04:07:47.652Z,101321.66
2022-08-03T04:08:18.086Z,101317.78
2022-08-03T04:08:49.406Z,101318.30
2022-08-03T04:09:19.908Z,101318.97
2022-08-03T04:09:50.329Z,101320.38
2022-08-03T04:10:20.754Z,101317.14
2022-08-03T04:10:51.171Z,101322.14
2022-08-03T04:11:29.025Z,101319.09
2022-08-03T04:11:56.914Z,101319.77
2022-08-03T04:12:27.334Z,101319.69
2022-08-03T04:12:57.755Z,101322.34
2022-08-03T04:13:28.183Z,101323.42
2022-08-03T04:14:02.009Z,101326.11
2022-08-03T04:14:32.548Z,101325.77
2022-08-03T04:15:02.964Z,101323.94
2022-08-03T04:15:33.383Z,101324.80
2022-08-03T04:16:03.809Z,101328.58
2022-08-03T04:16:34.228Z,101327.13
2022-08-03T04:17:04.650Z,101324.98
2022-08-03T04:17:35.070Z,101325.78
2022-08-03T04:18:05.489Z,101325.54
2022-08-03T04:18:35.920Z,101327.12
2022-08-03T04:19:06.340Z,101327.17
2022-08-03T04:19:36.765Z,101325.14
2022-08-03T04:20:08.319Z,101326.17
2022-08-03T04:20:38.738Z,101326.31
2022-08-03T04:21:09.155Z,101323.20
2022-08-03T04:21:39.576Z,101330.51
2022-08-03T04:22:10.073Z,101330.34
2022-08-03T04:22:40.448Z,101324.58
2022-08-03T04:23:15.427Z,101325.98
2022-08-03T04:23:46.201Z,101330.12
2022-08-03T04:24:16.621Z,101331.38
2022-08-03T04:24:47.041Z,101331.91
2022-08-03T04:25:17.461Z,101330.69
2022-08-03T04:25:47.882Z,101330.19
2022-08-03T04:26:18.307Z,101330.30
2022-08-03T04:26:52.609Z,101330.74
2022-08-03T04:27:23.279Z,101332.63
2022-08-03T04:28:30.125Z,101332.48
2022-08-03T04:28:30.578Z,101331.84
2022-08-03T04:29:02.105Z,101332.69
2022-08-03T04:29:32.525Z,101330.48
2022-08-03T04:30:02.946Z,101329.52
2022-08-03T04:30:33.367Z,101330.62
2022-08-03T04:31:03.797Z,101330.27
2022-08-03T04:31:34.218Z,101330.53
2022-08-03T04:32:04.646Z,101334.97
2022-08-03T04:32:35.063Z,101336.39
2022-08-03T04:33:05.484Z,101336.81
2022-08-03T04:33:36.121Z,101333.56
2022-08-03T04:34:06.842Z,101334.25
2022-08-03T04:34:37.262Z,101332.22
2022-08-03T04:35:07.693Z,101334.98
2022-08-03T04:36:01.105Z,101337.16
2022-08-03T04:36:13.434Z,101340.00
2022-08-03T04:36:43.852Z,101334.89
2022-08-03T04:37:14.271Z,101340.64
2022-08-03T04:37:44.694Z,101335.06
2022-08-03T04:38:15.113Z,101334.22
2022-08-03T04:38:45.542Z,101340.33
2022-08-03T04:39:15.961Z,101340.03
2022-08-03T04:39:46.385Z,101336.69
2022-08-03T04:40:16.806Z,101341.13
2022-08-03T04:40:52.127Z,101337.92
2022-08-03T04:41:22.550Z,101338.54
2022-08-03T04:42:07.443Z,101335.38
2022-08-03T04:42:28.295Z,101335.50
2022-08-03T04:42:58.714Z,101335.06
2022-08-03T04:43:29.138Z,101334.01
2022-08-03T04:43:59.565Z,101333.45
2022-08-03T04:44:29.978Z,101331.46
2022-08-03T04:45:01.614Z,101335.62
2022-08-03T04:45:32.200Z,101337.23
2022-08-03T04:46:02.623Z,101338.77
2022-08-03T04:46:33.043Z,101336.33
2022-08-03T04:47:03.468Z,101338.88
2022-08-03T04:47:33.885Z,101339.48
2022-08-03T04:48:04.307Z,101338.55
2022-08-03T04:48:34.734Z,101338.95
2022-08-03T04:49:05.210Z,101337.42
2022-08-03T04:49:35.633Z,101339.66
2022-08-03T04:50:09.227Z,101339.80
2022-08-03T04:50:41.361Z,101340.70
2022-08-03T04:51:11.783Z,101339.66
2022-08-03T04:51:42.203Z,101339.12
2022-08-03T04:52:12.643Z,101340.34
2022-08-03T04:52:43.047Z,101338.18
2022-08-03T04:53:13.460Z,101341.34
2022-08-03T04:53:43.895Z,101337.12
2022-08-03T04:54:14.313Z,101334.84
2022-08-03T04:54:48.798Z,101337.45
2022-08-03T04:55:20.055Z,101336.47
2022-08-03T04:55:50.477Z,101336.80
2022-08-03T04:56:20.893Z,101335.28
2022-08-03T04:56:51.319Z,101339.81
2022-08-03T04:57:23.236Z,101339.53
2022-08-03T04:57:53.964Z,101342.19
2022-08-03T04:58:24.384Z,101341.38
2022-08-03T04:58:54.812Z,101339.63
2022-08-03T04:59:25.229Z,101338.50
2022-08-03T05:00:02.213Z,101340.61
2022-08-03T05:00:30.975Z,101342.12
2022-08-03T05:01:01.394Z,101341.70
2022-08-03T05:01:31.854Z,101341.47
2022-08-03T05:02:02.281Z,101342.35
2022-08-03T05:02:32.671Z,101339.31
2022-08-03T05:03:03.109Z,101342.19
2022-08-03T05:03:33.514Z,101343.67
2022-08-03T05:04:03.968Z,101347.28
2022-08-03T05:04:34.360Z,101345.81
2022-08-03T05:05:04.781Z,101342.34
2022-08-03T05:05:48.930Z,101343.86
2022-08-03T05:06:11.631Z,101345.67
2022-08-03T05:06:48.141Z,101344.54
2022-08-03T05:07:20.486Z,101345.77
2022-08-03T05:07:53.113Z,101346.61
2022-08-03T05:08:27.771Z,101344.97
2022-08-03T05:08:58.733Z,101346.02
2022-08-03T05:09:49.759Z,101349.59
2022-08-03T05:10:04.753Z,101348.27
2022-08-03T05:10:40.101Z,101343.23
2022-08-03T05:11:10.499Z,101345.12
2022-08-03T05:11:40.934Z,101345.78
2022-08-03T05:12:11.342Z,101346.00
2022-08-03T05:12:41.758Z,101347.52
2022-08-03T05:13:12.178Z,101347.19
2022-08-03T05:13:42.605Z,101346.39
2022-08-03T05:14:13.023Z,101345.04
2022-08-03T05:14:43.445Z,101346.05
2022-08-03T05:15:13.868Z,101346.22
2022-08-03T05:15:44.297Z,101344.89
2022-08-03T05:16:14.720Z,101341.31
2022-08-03T05:16:45.137Z,101343.83
2022-08-03T05:17:15.601Z,101349.22
2022-08-03T05:17:46.022Z,101346.83
2022-08-03T05:18:16.439Z,101348.25
2022-08-03T05:18:46.867Z,101348.08
2022-08-03T05:19:17.295Z,101347.07
2022-08-03T05:19:47.716Z,101350.38
2022-08-03T05:20:19.144Z,101347.33
2022-08-03T05:20:49.533Z,101348.51
2022-08-03T05:21:19.959Z,101346.48
2022-08-03T05:21:52.532Z,101347.73
2022-08-03T05:22:23.402Z,101350.41
2022-08-03T05:22:53.822Z,101347.61
2022-08-03T05:23:24.241Z,101351.02
2022-08-03T05:23:54.678Z,101349.67
2022-08-03T05:24:25.102Z,101349.98
2022-08-03T05:24:55.520Z,101350.24
2022-08-03T05:25:27.537Z,101349.73
2022-08-03T05:25:57.977Z,101348.23
2022-08-03T05:26:28.488Z,101348.99
2022-08-03T05:26:58.858Z,101350.83
2022-08-03T05:27:29.276Z,101350.94
2022-08-03T05:27:59.697Z,101347.78
2022-08-03T05:28:30.119Z,101353.42
2022-08-03T05:29:00.548Z,101350.20
2022-08-03T05:29:30.967Z,101348.70
2022-08-03T05:30:29.787Z,101349.84
2022-08-03T05:30:36.712Z,101348.17
2022-08-03T05:31:07.134Z,101348.62
2022-08-03T05:31:37.552Z,101346.83
2022-08-03T05:32:08.539Z,101348.84
2022-08-03T05:32:38.978Z,101349.86
2022-08-03T05:33:09.406Z,101349.55
2022-08-03T05:33:39.827Z,101349.83
2022-08-03T05:34:10.252Z,101348.98
2022-08-03T05:34:40.672Z,101349.39
2022-08-03T05:36:00.709Z,101351.67
2022-08-03T05:36:00.873Z,101351.41
2022-08-03T05:36:21.737Z,101351.17
2022-08-03T05:36:52.159Z,101348.53
2022-08-03T05:37:22.578Z,101351.56
2022-08-03T05:37:54.868Z,101350.48
2022-08-03T05:38:28.649Z,101349.62
2022-08-03T05:39:02.637Z,101348.41
2022-08-03T05:39:33.315Z,101352.30
2022-08-03T05:40:03.741Z,101350.95
2022-08-03T05:40:34.159Z,101350.33
2022-08-03T05:41:22.327Z,101350.75
2022-08-03T05:41:39.905Z,101351.06
2022-08-03T05:42:10.405Z,101353.86
2022-08-03T05:42:40.769Z,101354.77
2022-08-03T05:43:11.189Z,101354.64
2022-08-03T05:43:41.610Z,101353.42
2022-08-03T05:44:12.040Z,101355.46
2022-08-03T05:44:42.458Z,101355.95
2022-08-03T05:45:12.882Z,101357.33
2022-08-03T05:45:43.704Z,101356.31
2022-08-03T05:46:14.135Z,101356.16
2022-08-03T05:46:44.548Z,101358.90
2022-08-03T05:47:14.966Z,101354.89
2022-08-03T05:47:45.387Z,101357.45
2022-08-03T05:48:15.803Z,101357.11
2022-08-03T05:48:46.224Z,101357.77
2022-08-03T05:49:16.738Z,101358.36
2022-08-03T05:49:47.113Z,101357.98
2022-08-03T05:50:17.538Z,101357.32
2022-08-03T05:50:47.961Z,101355.94
2022-08-03T05:51:18.380Z,101357.97
2022-08-03T05:51:48.799Z,101361.66
2022-08-03T05:52:24.384Z,101360.22
2022-08-03T05:52:55.051Z,101361.86
2022-08-03T05:53:25.593Z,101358.67
2022-08-03T05:53:56.023Z,101357.55